Terminal Aerodrome Forecast
Issued by NWS

Home | Current Version | Previous Version | Text Only | Print | Product List | Glossary On
Versions: 1 2 3 4 5 6 7 8 9 10 11 12 13
881
FTUS45 KRIW 231126
TAFRKS
TAF
KRKS 231126Z 2312/2412 32012G18KT 1/2SM SN VV008
     FM231300 28024G32KT 3/4SM -SN BLSN OVC008
     FM232300 04017G25KT 1 1/2SM -SN OVC012
     FM240700 06013KT 3SM -SN OVC018=

USA.gov is the U.S. government's official web portal to all federal, state and local government web resources and services.